createdAt,value
2022-10-22T00:00:00.188Z,98634.53
2022-10-22T00:02:27.977Z,98626.97
2022-10-22T00:04:57.091Z,98633.94
2022-10-22T00:07:24.298Z,98632.25
2022-10-22T00:09:51.274Z,98634.69
2022-10-22T00:12:19.243Z,98621.28
2022-10-22T00:14:46.263Z,98612.38
2022-10-22T00:17:13.549Z,98619.28
2022-10-22T00:19:40.742Z,98619.88
2022-10-22T00:22:10.096Z,98618.66
2022-10-22T00:24:39.058Z,98619.97
2022-10-22T00:27:08.306Z,98623.06
2022-10-22T00:29:35.348Z,98613.88
2022-10-22T00:32:03.456Z,98615.78
2022-10-22T00:34:30.190Z,98615.41
2022-10-22T00:36:57.159Z,98600.09
2022-10-22T00:39:25.765Z,98604.25
2022-10-22T00:41:54.793Z,98611.84
2022-10-22T00:44:59.467Z,98604.56
2022-10-22T00:47:28.914Z,98594.63
2022-10-22T00:49:57.694Z,98600.00
2022-10-22T00:52:25.210Z,98591.97
2022-10-22T00:54:52.583Z,98607.00
2022-10-22T00:57:20.869Z,98588.47
2022-10-22T00:59:48.518Z,98591.78
2022-10-22T01:02:16.741Z,98582.22
2022-10-22T01:04:43.567Z,98581.00
2022-10-22T01:07:17.833Z,98578.06
2022-10-22T01:10:00.171Z,98570.41
2022-10-22T01:12:57.482Z,98580.16
2022-10-22T01:15:33.182Z,98580.81
2022-10-22T01:18:06.656Z,98590.25
2022-10-22T01:20:56.850Z,98573.81
2022-10-22T01:23:32.696Z,98565.88
2022-10-22T01:26:36.903Z,98571.25
2022-10-22T01:29:22.093Z,98569.44
2022-10-22T01:31:56.777Z,98578.91
2022-10-22T01:34:25.918Z,98573.91
2022-10-22T01:36:54.711Z,98575.91
2022-10-22T01:39:24.133Z,98577.88
2022-10-22T01:41:54.091Z,98572.88
2022-10-22T01:44:23.834Z,98571.00
2022-10-22T01:46:57.464Z,98569.25
2022-10-22T01:49:37.968Z,98566.81
2022-10-22T01:52:27.603Z,98565.38
2022-10-22T01:55:02.696Z,98563.69
2022-10-22T01:57:53.712Z,98574.50
2022-10-22T02:00:21.324Z,98581.97
2022-10-22T02:02:52.991Z,98570.91
2022-10-22T02:05:30.177Z,98572.66
2022-10-22T02:08:09.163Z,98573.63
2022-10-22T02:10:39.393Z,98581.56
2022-10-22T02:13:12.423Z,98570.22
2022-10-22T02:15:40.659Z,98579.88
2022-10-22T02:18:10.211Z,98573.72
2022-10-22T02:20:37.999Z,98567.66
2022-10-22T02:23:05.526Z,98563.03
2022-10-22T02:25:35.958Z,98546.19
2022-10-22T02:28:13.123Z,98542.72
2022-10-22T02:30:44.199Z,98537.53
2022-10-22T02:33:16.793Z,98546.88
2022-10-22T02:35:45.093Z,98549.72
2022-10-22T02:38:13.725Z,98550.56
2022-10-22T02:43:24.857Z,98554.06
2022-10-22T02:45:52.108Z,98558.50
2022-10-22T02:48:18.904Z,98556.91
2022-10-22T02:50:45.892Z,98559.72
2022-10-22T02:53:12.791Z,98568.41
2022-10-22T02:55:39.840Z,98559.72
2022-10-22T02:58:06.677Z,98560.88
2022-10-22T03:00:33.693Z,98561.13
2022-10-22T03:03:00.484Z,98563.88
2022-10-22T03:05:27.491Z,98558.66
2022-10-22T03:07:54.269Z,98549.19
2022-10-22T03:10:21.262Z,98551.06
2022-10-22T03:12:48.368Z,98559.19
2022-10-22T03:15:15.512Z,98554.19
2022-10-22T03:17:42.572Z,98539.50
2022-10-22T03:20:10.181Z,98551.53
2022-10-22T03:22:40.309Z,98557.25
2022-10-22T03:25:12.471Z,98568.28
2022-10-22T03:27:40.865Z,98572.47
2022-10-22T03:30:09.425Z,98570.09
2022-10-22T03:32:36.224Z,98573.13
2022-10-22T03:35:03.465Z,98576.38
2022-10-22T03:37:30.384Z,98575.94
2022-10-22T03:39:57.770Z,98571.38
2022-10-22T03:42:24.669Z,98567.63
2022-10-22T03:44:51.770Z,98568.06
2022-10-22T03:47:18.607Z,98565.94
2022-10-22T03:49:45.574Z,98566.25
2022-10-22T03:52:14.523Z,98563.88
2022-10-22T03:54:42.499Z,98553.56
2022-10-22T03:57:10.485Z,98553.13
2022-10-22T03:59:40.349Z,98551.69
2022-10-22T04:02:07.864Z,98556.25
2022-10-22T04:04:36.330Z,98550.06
2022-10-22T04:07:04.190Z,98556.38
2022-10-22T04:09:32.851Z,98554.03
2022-10-22T04:12:00.365Z,98557.94
2022-10-22T04:14:27.651Z,98549.31
2022-10-22T04:16:54.551Z,98541.56
2022-10-22T04:19:21.766Z,98538.66
2022-10-22T04:21:49.511Z,98545.09
2022-10-22T04:24:16.675Z,98541.00
2022-10-22T04:26:43.868Z,98543.88
2022-10-22T04:29:13.587Z,98545.66
2022-10-22T04:31:43.032Z,98539.28
2022-10-22T04:34:10.102Z,98534.00
2022-10-22T04:36:37.065Z,98532.22
2022-10-22T04:39:04.725Z,98532.75
2022-10-22T04:41:34.303Z,98529.25
2022-10-22T04:44:01.554Z,98520.25
2022-10-22T04:46:30.838Z,98520.00
2022-10-22T04:48:57.766Z,98513.97
2022-10-22T04:51:25.902Z,98503.47
2022-10-22T04:53:53.885Z,98511.75
2022-10-22T04:56:21.981Z,98506.53
2022-10-22T04:58:51.822Z,98506.38
2022-10-22T05:01:21.905Z,98515.59
2022-10-22T05:03:50.056Z,98509.91
2022-10-22T05:06:17.682Z,98512.97
2022-10-22T05:08:44.934Z,98503.94
2022-10-22T05:11:13.571Z,98506.59
2022-10-22T05:13:40.663Z,98498.53
2022-10-22T05:16:08.470Z,98507.19
2022-10-22T05:18:40.293Z,98517.66
2022-10-22T05:21:18.751Z,98504.34
2022-10-22T05:23:48.208Z,98499.34
2022-10-22T05:26:19.313Z,98494.13
2022-10-22T05:28:47.721Z,98484.13
2022-10-22T05:31:15.410Z,98481.44
2022-10-22T05:33:43.497Z,98483.03
2022-10-22T05:36:13.898Z,98480.34
2022-10-22T05:38:40.993Z,98482.97
2022-10-22T05:41:19.927Z,98497.13
2022-10-22T05:43:47.486Z,98490.69
2022-10-22T05:46:22.438Z,98506.44
2022-10-22T05:48:52.237Z,98499.75
2022-10-22T05:51:19.748Z,98501.16
2022-10-22T05:53:46.746Z,98511.19
2022-10-22T05:56:15.686Z,98513.75
2022-10-22T05:58:44.317Z,98514.69
2022-10-22T06:01:17.962Z,98524.59
2022-10-22T06:03:46.033Z,98528.50
2022-10-22T06:06:18.898Z,98528.44
2022-10-22T06:08:48.680Z,98531.09
2022-10-22T06:11:17.938Z,98523.03
2022-10-22T06:13:45.810Z,98527.66
2022-10-22T06:16:12.790Z,98532.09
2022-10-22T06:18:39.818Z,98530.13
2022-10-22T06:21:11.949Z,98534.97
2022-10-22T06:23:39.889Z,98547.34
2022-10-22T06:26:07.513Z,98548.91
2022-10-22T06:28:35.093Z,98555.22
2022-10-22T06:31:03.741Z,98556.91
2022-10-22T06:33:33.241Z,98557.69
2022-10-22T06:36:07.884Z,98549.78
2022-10-22T06:38:35.238Z,98555.53
2022-10-22T06:41:04.359Z,98559.78
2022-10-22T06:43:31.629Z,98565.72
2022-10-22T06:46:04.274Z,98585.34
2022-10-22T06:48:31.576Z,98578.66
2022-10-22T06:51:02.222Z,98588.50
2022-10-22T06:53:29.881Z,98598.28
2022-10-22T06:55:56.854Z,98605.91
2022-10-22T06:58:24.317Z,98601.38
2022-10-22T07:01:01.193Z,98605.94
2022-10-22T07:03:28.221Z,98601.25
2022-10-22T07:05:54.957Z,98603.34
2022-10-22T07:08:21.970Z,98600.34
2022-10-22T07:10:48.711Z,98596.25
2022-10-22T07:13:16.070Z,98592.22
2022-10-22T07:15:42.823Z,98598.78
2022-10-22T07:18:09.776Z,98595.03
2022-10-22T07:20:36.581Z,98602.41
2022-10-22T07:23:03.559Z,98614.69
2022-10-22T07:25:30.306Z,98601.66
2022-10-22T07:27:57.304Z,98592.88
2022-10-22T07:30:24.072Z,98588.03
2022-10-22T07:32:51.048Z,98575.50
2022-10-22T07:35:17.864Z,98590.56
2022-10-22T07:37:44.838Z,98582.25
2022-10-22T07:40:11.854Z,98585.09
2022-10-22T07:42:38.947Z,98592.28
2022-10-22T07:45:06.179Z,98583.84
2022-10-22T07:47:33.405Z,98583.34
2022-10-22T07:50:00.223Z,98582.78
2022-10-22T07:52:27.470Z,98587.75
2022-10-22T07:54:54.216Z,98589.06
2022-10-22T07:57:21.263Z,98586.59
2022-10-22T07:59:48.010Z,98581.25
2022-10-22T08:02:15.146Z,98570.72
2022-10-22T08:04:42.088Z,98581.19
2022-10-22T08:07:09.082Z,98574.00
2022-10-22T08:09:35.815Z,98578.91
2022-10-22T08:12:02.820Z,98582.06
2022-10-22T08:14:29.575Z,98569.47
2022-10-22T08:16:56.633Z,98571.16
2022-10-22T08:19:23.454Z,98574.81
2022-10-22T08:21:50.459Z,98567.06
2022-10-22T08:24:17.180Z,98569.81
2022-10-22T08:26:44.235Z,98567.00
2022-10-22T08:29:11.081Z,98555.38
2022-10-22T08:31:38.086Z,98563.31
2022-10-22T08:34:05.708Z,98568.91
2022-10-22T08:36:32.706Z,98577.53
2022-10-22T08:38:59.493Z,98589.88
2022-10-22T08:41:26.742Z,98586.97
2022-10-22T08:44:05.417Z,98588.38
2022-10-22T08:47:10.088Z,98585.03
2022-10-22T08:49:42.107Z,98579.16
2022-10-22T08:52:15.727Z,98583.03
2022-10-22T08:54:51.973Z,98585.94
2022-10-22T08:57:21.896Z,98585.50
2022-10-22T09:00:20.261Z,98593.47
2022-10-22T09:03:05.018Z,98601.47
2022-10-22T09:05:49.056Z,98604.56
2022-10-22T09:08:18.010Z,98624.44
2022-10-22T09:10:51.943Z,98617.63
2022-10-22T09:13:21.256Z,98626.16
2022-10-22T09:15:54.181Z,98619.19
2022-10-22T09:18:30.069Z,98619.63
2022-10-22T09:21:04.281Z,98624.47
2022-10-22T09:23:50.083Z,98612.28
2022-10-22T09:26:17.045Z,98611.09
2022-10-22T09:28:44.105Z,98603.53
2022-10-22T09:31:15.476Z,98593.06
2022-10-22T09:33:44.512Z,98607.72
2022-10-22T09:36:18.008Z,98595.81
2022-10-22T09:38:49.307Z,98591.63
2022-10-22T09:41:16.918Z,98595.25
2022-10-22T09:43:47.886Z,98608.09
2022-10-22T09:46:21.055Z,98610.31
2022-10-22T09:49:02.367Z,98607.63
2022-10-22T09:51:49.884Z,98600.84
2022-10-22T09:54:24.584Z,98607.44
2022-10-22T09:56:58.099Z,98601.13
2022-10-22T09:59:29.142Z,98602.84
2022-10-22T10:02:08.478Z,98605.72
2022-10-22T10:04:55.480Z,98609.69
2022-10-22T10:07:22.139Z,98615.13
2022-10-22T10:09:51.520Z,98621.69
2022-10-22T10:12:40.143Z,98628.13
2022-10-22T10:15:13.167Z,98624.81
2022-10-22T10:18:01.617Z,98630.41
2022-10-22T10:21:00.771Z,98621.44
2022-10-22T10:23:42.459Z,98620.84
2022-10-22T10:26:25.150Z,98631.00
2022-10-22T10:29:23.451Z,98634.28
2022-10-22T10:32:21.083Z,98636.94
2022-10-22T10:35:02.373Z,98633.81
2022-10-22T10:38:27.373Z,98629.78
2022-10-22T10:41:23.589Z,98625.91
2022-10-22T10:44:22.903Z,98624.81
2022-10-22T10:47:03.502Z,98621.06
2022-10-22T10:49:34.709Z,98622.03
2022-10-22T10:52:18.820Z,98600.25
2022-10-22T10:55:19.132Z,98598.41
2022-10-22T10:58:11.839Z,98594.78
2022-10-22T11:00:53.590Z,98586.78
2022-10-22T11:03:43.465Z,98585.94
2022-10-22T11:06:14.703Z,98583.25
2022-10-22T11:08:50.119Z,98576.63
2022-10-22T11:11:20.168Z,98565.97
2022-10-22T11:13:52.322Z,98573.69
2022-10-22T11:16:27.091Z,98561.31
2022-10-22T11:19:03.529Z,98573.22
2022-10-22T11:21:40.101Z,98575.63
2022-10-22T11:24:22.858Z,98576.63
2022-10-22T11:27:02.790Z,98565.44
2022-10-22T11:29:39.184Z,98569.31
2022-10-22T11:32:11.228Z,98571.88
2022-10-22T11:34:45.807Z,98561.81
2022-10-22T11:37:14.563Z,98559.88
2022-10-22T11:40:18.744Z,98558.19
2022-10-22T11:42:50.355Z,98548.34
2022-10-22T11:45:17.165Z,98550.06
2022-10-22T11:48:05.764Z,98549.72
2022-10-22T11:50:42.630Z,98547.91
2022-10-22T11:53:12.637Z,98544.84
2022-10-22T11:55:48.619Z,98551.03
2022-10-22T11:58:30.598Z,98552.13
2022-10-22T12:01:03.142Z,98544.63
2022-10-22T12:03:33.149Z,98539.44
2022-10-22T12:06:02.937Z,98547.41
2022-10-22T12:08:30.712Z,98543.19
2022-10-22T12:11:06.027Z,98539.91
2022-10-22T12:13:58.537Z,98541.84
2022-10-22T12:16:55.037Z,98550.31
2022-10-22T12:19:22.616Z,98547.91
2022-10-22T12:21:54.408Z,98547.53
2022-10-22T12:24:24.377Z,98553.34
2022-10-22T12:26:52.802Z,98559.38
2022-10-22T12:29:26.793Z,98554.41
2022-10-22T12:31:55.029Z,98561.44
2022-10-22T12:34:24.377Z,98566.50
2022-10-22T12:36:52.999Z,98568.88
2022-10-22T12:39:25.271Z,98559.75
2022-10-22T12:41:54.085Z,98565.16
2022-10-22T12:44:21.086Z,98570.69
2022-10-22T12:46:52.985Z,98568.63
2022-10-22T12:49:36.531Z,98569.19
2022-10-22T12:52:08.759Z,98570.50
2022-10-22T12:54:39.243Z,98572.31
2022-10-22T12:57:06.387Z,98572.66
2022-10-22T12:59:37.103Z,98581.72
2022-10-22T13:02:24.586Z,98578.94
2022-10-22T13:05:12.326Z,98584.59
2022-10-22T13:07:42.878Z,98581.94
2022-10-22T13:10:33.095Z,98581.53
2022-10-22T13:13:03.241Z,98590.81
2022-10-22T13:15:30.244Z,98592.94
2022-10-22T13:18:21.069Z,98592.34
2022-10-22T13:20:59.083Z,98589.47
2022-10-22T13:23:28.250Z,98585.13
2022-10-22T13:26:14.160Z,98590.38
2022-10-22T13:28:41.554Z,98585.38
2022-10-22T13:31:11.897Z,98578.69
2022-10-22T13:33:43.068Z,98594.88
2022-10-22T13:36:14.610Z,98578.47
2022-10-22T13:38:42.501Z,98575.19
2022-10-22T13:41:27.269Z,98580.06
2022-10-22T13:43:54.987Z,98573.31
2022-10-22T13:46:23.145Z,98574.47
2022-10-22T13:48:52.791Z,98567.66
2022-10-22T13:51:24.357Z,98565.13
2022-10-22T13:53:53.622Z,98566.41
2022-10-22T13:56:21.964Z,98566.50
2022-10-22T13:58:48.777Z,98561.50
2022-10-22T14:01:24.424Z,98559.94
2022-10-22T14:03:54.613Z,98559.28
2022-10-22T14:06:22.701Z,98555.25
2022-10-22T14:08:56.235Z,98555.69
2022-10-22T14:11:23.256Z,98557.91
2022-10-22T14:13:50.126Z,98556.72
2022-10-22T14:16:20.727Z,98567.88
2022-10-22T14:18:48.897Z,98565.00
2022-10-22T14:21:17.183Z,98562.88
2022-10-22T14:23:45.917Z,98569.53
2022-10-22T14:26:23.094Z,98564.84
2022-10-22T14:29:08.823Z,98566.31
2022-10-22T14:34:12.545Z,98566.22
2022-10-22T14:36:39.600Z,98564.41
2022-10-22T14:39:06.395Z,98573.81
2022-10-22T14:41:33.673Z,98573.53
2022-10-22T14:44:00.736Z,98570.63
2022-10-22T14:46:27.937Z,98572.81
2022-10-22T14:48:54.681Z,98563.66
2022-10-22T14:51:22.142Z,98564.44
2022-10-22T14:53:49.082Z,98562.09
2022-10-22T14:56:21.437Z,98565.31
2022-10-22T14:58:49.131Z,98559.72
2022-10-22T15:01:16.681Z,98557.66
2022-10-22T15:03:43.494Z,98559.75
2022-10-22T15:06:10.551Z,98558.31
2022-10-22T15:08:37.697Z,98560.47
2022-10-22T15:11:10.777Z,98559.06
2022-10-22T15:13:37.932Z,98549.81
2022-10-22T15:16:10.395Z,98552.88
2022-10-22T15:18:37.997Z,98557.69
2022-10-22T15:21:08.238Z,98550.88
2022-10-22T15:23:36.827Z,98550.97
2022-10-22T15:26:06.796Z,98550.28
2022-10-22T15:28:33.560Z,98545.28
2022-10-22T15:31:01.015Z,98556.06
2022-10-22T15:33:29.372Z,98553.69
2022-10-22T15:35:57.401Z,98554.97
2022-10-22T15:41:10.086Z,98568.84
2022-10-22T15:43:37.070Z,98565.44
2022-10-22T15:46:17.031Z,98571.13
2022-10-22T15:48:43.847Z,98574.75
2022-10-22T15:51:13.089Z,98565.28
2022-10-22T15:53:40.781Z,98562.97
2022-10-22T15:56:08.669Z,98562.31
2022-10-22T15:58:35.750Z,98566.34
2022-10-22T16:01:10.955Z,98560.44
2022-10-22T16:03:37.856Z,98568.63
2022-10-22T16:06:07.167Z,98564.56
2022-10-22T16:08:34.086Z,98571.91
2022-10-22T16:11:01.219Z,98582.78
2022-10-22T16:13:28.145Z,98590.03
2022-10-22T16:15:55.388Z,98589.38
2022-10-22T16:18:23.718Z,98578.69
2022-10-22T16:20:50.833Z,98581.59
2022-10-22T16:23:19.126Z,98584.59
2022-10-22T16:25:46.847Z,98584.06
2022-10-22T16:28:14.369Z,98586.97
2022-10-22T16:30:41.907Z,98578.34
2022-10-22T16:33:10.594Z,98577.66
2022-10-22T16:35:42.422Z,98580.28
2022-10-22T16:38:10.722Z,98574.25
2022-10-22T16:40:38.262Z,98576.88
2022-10-22T16:43:05.807Z,98579.44
2022-10-22T16:45:32.924Z,98581.25
2022-10-22T16:47:59.725Z,98583.03
2022-10-22T16:50:27.002Z,98581.38
2022-10-22T16:52:53.859Z,98578.84
2022-10-22T16:55:20.963Z,98577.06
2022-10-22T16:57:52.247Z,98578.25
2022-10-22T17:00:20.239Z,98590.50
2022-10-22T17:02:53.983Z,98589.72
2022-10-22T17:05:21.592Z,98593.22
2022-10-22T17:07:48.660Z,98589.66
2022-10-22T17:10:16.589Z,98595.94
2022-10-22T17:12:43.671Z,98591.53
2022-10-22T17:15:10.959Z,98592.50
2022-10-22T17:17:38.986Z,98583.72
2022-10-22T17:20:07.036Z,98595.22
2022-10-22T17:22:33.992Z,98582.03
2022-10-22T17:25:22.159Z,98587.31
2022-10-22T17:27:49.453Z,98580.22
2022-10-22T17:30:23.276Z,98579.56
2022-10-22T17:32:54.205Z,98581.44
2022-10-22T17:35:21.263Z,98593.25
2022-10-22T17:37:48.157Z,98585.53
2022-10-22T17:40:15.916Z,98586.56
2022-10-22T17:42:43.003Z,98584.94
2022-10-22T17:45:10.267Z,98585.97
2022-10-22T17:47:37.140Z,98585.19
2022-10-22T17:50:04.359Z,98592.84
2022-10-22T17:52:31.237Z,98589.38
2022-10-22T17:54:58.248Z,98585.78
2022-10-22T17:57:25.145Z,98583.25
2022-10-22T17:59:52.179Z,98579.91
2022-10-22T18:02:19.425Z,98584.34
2022-10-22T18:04:49.793Z,98593.09
2022-10-22T18:07:16.940Z,98581.78
2022-10-22T18:09:44.919Z,98576.44
2022-10-22T18:12:13.816Z,98572.16
2022-10-22T18:14:40.787Z,98579.31
2022-10-22T18:17:08.235Z,98582.97
2022-10-22T18:19:35.535Z,98581.09
2022-10-22T18:22:02.520Z,98576.75
2022-10-22T18:24:29.529Z,98571.53
2022-10-22T18:26:56.326Z,98571.63
2022-10-22T18:29:23.418Z,98564.56
2022-10-22T18:31:50.262Z,98564.63
2022-10-22T18:34:20.257Z,98574.34
2022-10-22T18:36:49.920Z,98574.28
2022-10-22T18:39:17.693Z,98574.34
2022-10-22T18:41:44.609Z,98569.91
2022-10-22T18:44:13.876Z,98567.38
2022-10-22T18:46:40.920Z,98570.09
2022-10-22T18:49:08.517Z,98566.59
2022-10-22T18:51:36.345Z,98567.38
2022-10-22T18:54:21.365Z,98576.13
2022-10-22T18:56:49.341Z,98571.00
2022-10-22T18:59:23.673Z,98577.22
2022-10-22T19:01:52.972Z,98572.00
2022-10-22T19:04:20.227Z,98569.56
2022-10-22T19:06:46.995Z,98576.63
2022-10-22T19:09:15.808Z,98585.38
2022-10-22T19:11:44.801Z,98581.03
2022-10-22T19:14:13.913Z,98587.06
2022-10-22T19:16:40.778Z,98589.88
2022-10-22T19:19:08.324Z,98594.38
2022-10-22T19:21:36.564Z,98586.53
2022-10-22T19:24:03.901Z,98592.69
2022-10-22T19:26:31.306Z,98593.59
2022-10-22T19:28:59.491Z,98593.44
2022-10-22T19:31:28.257Z,98592.56
2022-10-22T19:33:55.795Z,98589.16
2022-10-22T19:36:30.272Z,98585.69
2022-10-22T19:38:57.645Z,98594.44
2022-10-22T19:41:26.117Z,98600.66
2022-10-22T19:43:54.749Z,98599.81
2022-10-22T19:46:23.115Z,98605.09
2022-10-22T19:48:51.488Z,98601.59
2022-10-22T19:51:21.129Z,98601.66
2022-10-22T19:53:48.903Z,98598.25
2022-10-22T19:56:20.703Z,98603.47
2022-10-22T19:58:47.812Z,98606.16
2022-10-22T20:01:16.663Z,98606.16
2022-10-22T20:03:43.786Z,98616.72
2022-10-22T20:06:12.405Z,98610.19
2022-10-22T20:08:40.186Z,98614.06
2022-10-22T20:11:16.360Z,98614.91
2022-10-22T20:13:45.408Z,98612.34
2022-10-22T20:16:15.870Z,98615.09
2022-10-22T20:18:43.208Z,98615.09
2022-10-22T20:21:14.022Z,98605.38
2022-10-22T20:23:41.353Z,98601.91
2022-10-22T20:26:08.860Z,98602.81
2022-10-22T20:28:36.838Z,98606.47
2022-10-22T20:31:09.750Z,98603.94
2022-10-22T20:33:36.782Z,98617.00
2022-10-22T20:36:07.154Z,98608.88
2022-10-22T20:41:10.186Z,98620.50
2022-10-22T20:43:37.253Z,98624.84
2022-10-22T20:46:04.549Z,98616.09
2022-10-22T20:48:32.290Z,98620.44
2022-10-22T20:51:00.107Z,98620.25
2022-10-22T20:53:27.819Z,98617.56
2022-10-22T20:55:57.995Z,98618.34
2022-10-22T20:58:27.091Z,98623.78
2022-10-22T21:00:55.199Z,98622.91
2022-10-22T21:03:22.354Z,98628.94
2022-10-22T21:05:49.379Z,98621.91
2022-10-22T21:08:17.760Z,98626.06
2022-10-22T21:10:46.500Z,98630.44
2022-10-22T21:13:14.037Z,98639.19
2022-10-22T21:15:40.865Z,98636.50
2022-10-22T21:18:08.505Z,98638.19
2022-10-22T21:20:35.342Z,98629.25
2022-10-22T21:23:02.345Z,98629.25
2022-10-22T21:25:29.139Z,98634.53
2022-10-22T21:27:56.145Z,98632.66
2022-10-22T21:30:22.992Z,98632.53
2022-10-22T21:32:50.082Z,98639.56
2022-10-22T21:35:16.945Z,98635.06
2022-10-22T21:37:44.307Z,98630.69
2022-10-22T21:40:11.827Z,98621.81
2022-10-22T21:42:39.001Z,98624.44
2022-10-22T21:45:10.635Z,98620.72
2022-10-22T21:47:41.505Z,98622.53
2022-10-22T21:50:08.900Z,98626.72
2022-10-22T21:52:35.969Z,98611.03
2022-10-22T21:55:02.877Z,98614.38
2022-10-22T21:57:29.918Z,98612.50
2022-10-22T21:59:56.765Z,98612.50
2022-10-22T22:02:24.157Z,98620.25
2022-10-22T22:04:54.803Z,98622.97
2022-10-22T22:07:22.509Z,98620.97
2022-10-22T22:09:50.606Z,98622.66
2022-10-22T22:12:18.506Z,98616.53
2022-10-22T22:14:45.304Z,98624.44
2022-10-22T22:17:12.371Z,98624.38
2022-10-22T22:19:39.144Z,98624.38
2022-10-22T22:22:06.187Z,98627.69
2022-10-22T22:24:33.490Z,98615.28
2022-10-22T22:27:00.491Z,98618.84
2022-10-22T22:29:27.238Z,98626.59
2022-10-22T22:31:54.338Z,98632.81
2022-10-22T22:34:21.099Z,98632.72
2022-10-22T22:36:49.829Z,98629.41
2022-10-22T22:39:22.635Z,98628.41
2022-10-22T22:41:49.735Z,98636.22
2022-10-22T22:44:16.937Z,98630.84
2022-10-22T22:46:44.435Z,98627.31
2022-10-22T22:49:12.584Z,98637.75
2022-10-22T22:51:39.693Z,98634.97
2022-10-22T22:54:06.457Z,98643.50
2022-10-22T22:56:34.655Z,98641.50
2022-10-22T22:59:02.407Z,98643.63
2022-10-22T23:01:30.560Z,98638.81
2022-10-22T23:04:11.071Z,98631.59
2022-10-22T23:06:38.497Z,98635.75
2022-10-22T23:09:07.309Z,98634.00
2022-10-22T23:11:34.666Z,98637.53
2022-10-22T23:14:03.545Z,98639.09
2022-10-22T23:16:33.519Z,98644.19
2022-10-22T23:19:01.253Z,98644.97
2022-10-22T23:21:31.075Z,98643.88
2022-10-22T23:24:01.004Z,98647.34
2022-10-22T23:26:32.524Z,98651.47
2022-10-22T23:29:06.375Z,98651.28
2022-10-22T23:31:34.050Z,98652.00
2022-10-22T23:34:01.146Z,98650.38
2022-10-22T23:36:28.126Z,98655.41
2022-10-22T23:38:55.757Z,98656.06
2022-10-22T23:41:22.869Z,98657.00
2022-10-22T23:43:50.298Z,98664.75
2022-10-22T23:46:17.326Z,98669.13
2022-10-22T23:48:44.133Z,98665.38
2022-10-22T23:51:13.986Z,98667.06
2022-10-22T23:53:42.313Z,98669.78
2022-10-22T23:56:13.237Z,98672.28
2022-10-22T23:58:40.103Z,98671.50
